createdAt,value
2023-04-03T00:03:58.188Z,15.80
2023-04-03T00:10:00.876Z,17.02
2023-04-03T00:22:07.129Z,16.02
2023-04-03T00:28:10.096Z,14.38
2023-04-03T00:34:12.552Z,14.50
2023-04-03T00:40:16.818Z,14.25
2023-04-03T00:46:19.400Z,13.27
2023-04-03T00:52:26.862Z,15.60
2023-04-03T00:58:41.289Z,16.70
2023-04-03T01:04:45.211Z,14.75
2023-04-03T01:10:47.603Z,15.77
2023-04-03T01:16:56.705Z,15.02
2023-04-03T01:23:11.263Z,13.63
2023-04-03T01:29:13.754Z,15.68
2023-04-03T01:35:16.443Z,16.05
2023-04-03T01:41:19.513Z,15.60
2023-04-03T01:47:23.914Z,14.40
2023-04-03T01:53:26.740Z,14.30
2023-04-03T02:05:32.475Z,15.57
2023-04-03T02:17:38.121Z,14.73
2023-04-03T02:23:40.531Z,16.30
2023-04-03T02:29:42.843Z,14.73
2023-04-03T02:35:45.373Z,17.23
2023-04-03T02:41:47.833Z,14.40
2023-04-03T02:47:56.588Z,17.88
2023-04-03T02:53:59.455Z,17.85
2023-04-03T03:00:06.770Z,19.55
2023-04-03T03:06:15.458Z,18.55
2023-04-03T03:12:23.119Z,19.98
2023-04-03T03:18:26.267Z,19.70
2023-04-03T03:24:28.859Z,20.35
2023-04-03T03:30:31.508Z,20.05
2023-04-03T03:42:36.482Z,20.58
2023-04-03T03:48:38.771Z,19.52
2023-04-03T03:54:41.207Z,12.70
2023-04-03T04:06:46.742Z,17.65
2023-04-03T04:12:50.426Z,17.27
2023-04-03T04:18:53.926Z,19.35
2023-04-03T04:24:56.921Z,18.98
2023-04-03T04:43:06.843Z,22.00
2023-04-03T04:49:09.567Z,16.48
2023-04-03T04:55:12.301Z,16.60
2023-04-03T05:07:26.485Z,23.55
2023-04-03T05:13:29.684Z,17.13
2023-04-03T05:19:33.039Z,12.57
2023-04-03T05:25:38.753Z,9.80
2023-04-03T05:31:41.704Z,9.20
2023-04-03T05:37:46.419Z,7.70
2023-04-03T05:43:50.840Z,8.45
2023-04-03T05:49:53.938Z,8.38
2023-04-03T05:55:56.571Z,8.52
2023-04-03T06:01:59.660Z,6.63
2023-04-03T06:08:02.006Z,6.88
2023-04-03T06:14:04.592Z,7.60
2023-04-03T06:26:10.001Z,6.28
2023-04-03T06:32:12.309Z,7.53
2023-04-03T06:38:14.607Z,5.65
2023-04-03T06:44:17.472Z,6.57
2023-04-03T06:50:19.981Z,6.32
2023-04-03T06:56:22.995Z,6.10
2023-04-03T07:02:25.572Z,6.15
2023-04-03T07:08:28.159Z,5.88
2023-04-03T07:14:30.501Z,7.28
2023-04-03T07:20:32.974Z,7.60
2023-04-03T07:26:35.314Z,5.95
2023-04-03T07:32:38.134Z,6.38
2023-04-03T07:38:40.765Z,6.50
2023-04-03T07:44:42.929Z,6.93
2023-04-03T07:50:48.748Z,6.38
2023-04-03T07:56:51.529Z,5.60
2023-04-03T08:02:53.970Z,6.00
2023-04-03T08:08:56.353Z,6.63
2023-04-03T08:14:58.893Z,6.82
2023-04-03T08:21:01.623Z,6.82
2023-04-03T08:27:04.101Z,6.35
2023-04-03T08:33:06.493Z,6.60
2023-04-03T08:39:09.287Z,6.28
2023-04-03T08:45:44.154Z,5.97
2023-04-03T08:51:50.163Z,7.00
2023-04-03T08:58:00.071Z,7.40
2023-04-03T09:04:04.255Z,6.80
2023-04-03T09:10:07.641Z,7.07
2023-04-03T09:16:36.103Z,6.57
2023-04-03T09:22:49.648Z,6.82
2023-04-03T09:28:57.469Z,6.72
2023-04-03T09:35:48.130Z,4.82
2023-04-03T09:42:08.688Z,6.05
2023-04-03T09:48:19.444Z,7.07
2023-04-03T09:54:38.827Z,6.20
2023-04-03T10:00:41.888Z,5.03
2023-04-03T10:06:50.555Z,6.22
2023-04-03T10:13:20.238Z,6.63
2023-04-03T10:19:44.972Z,5.28
2023-04-03T10:26:15.927Z,5.60
2023-04-03T10:32:20.848Z,5.97
2023-04-03T10:38:36.029Z,6.72
2023-04-03T10:44:44.663Z,7.70
2023-04-03T10:51:28.811Z,7.70
2023-04-03T10:57:32.000Z,9.07
2023-04-03T11:03:45.539Z,7.70
2023-04-03T11:09:58.753Z,7.13
2023-04-03T11:16:01.898Z,7.07
2023-04-03T11:22:24.718Z,7.70
2023-04-03T11:28:27.846Z,7.97
2023-04-03T11:34:35.688Z,8.45
2023-04-03T11:40:39.298Z,7.20
2023-04-03T11:46:57.885Z,7.68
2023-04-03T11:53:07.867Z,6.70
2023-04-03T11:59:15.643Z,7.35
2023-04-03T12:05:31.059Z,6.57
2023-04-03T12:11:35.377Z,7.75
2023-04-03T12:17:38.226Z,6.97
2023-04-03T12:24:18.882Z,7.28
2023-04-03T12:30:27.992Z,8.60
2023-04-03T12:36:46.529Z,8.75
2023-04-03T12:43:11.833Z,7.57
2023-04-03T12:49:34.828Z,6.93
2023-04-03T12:55:37.440Z,7.47
2023-04-03T13:01:40.636Z,7.10
2023-04-03T13:07:45.239Z,7.40
2023-04-03T13:13:58.664Z,6.82
2023-04-03T13:20:14.868Z,7.55
2023-04-03T13:26:20.040Z,8.40
2023-04-03T13:32:26.222Z,7.80
2023-04-03T13:38:34.251Z,7.97
2023-04-03T13:44:40.853Z,7.25
2023-04-03T13:51:04.505Z,6.88
2023-04-03T13:57:16.305Z,6.35
2023-04-03T14:03:44.329Z,6.63
2023-04-03T14:09:46.691Z,7.10
2023-04-03T14:15:50.125Z,6.57
2023-04-03T14:21:54.554Z,7.70
2023-04-03T14:27:57.553Z,8.30
2023-04-03T14:33:59.937Z,7.68
2023-04-03T14:40:05.150Z,7.75
2023-04-03T14:46:16.180Z,9.20
2023-04-03T14:52:32.401Z,9.50
2023-04-03T14:58:38.216Z,7.97
2023-04-03T15:04:41.138Z,7.43
2023-04-03T15:16:46.368Z,9.90
2023-04-03T15:22:48.792Z,8.25
2023-04-03T15:28:51.112Z,10.20
2023-04-03T15:34:56.042Z,10.48
2023-04-03T15:40:59.367Z,10.32
2023-04-03T15:47:02.774Z,11.57
2023-04-03T15:53:05.483Z,13.75
2023-04-03T15:59:07.734Z,14.35
2023-04-03T16:05:11.628Z,12.77
2023-04-03T16:11:14.176Z,13.75
2023-04-03T16:17:16.887Z,13.18
2023-04-03T16:29:22.216Z,11.50
2023-04-03T16:35:24.478Z,14.93
2023-04-03T16:41:26.872Z,14.02
2023-04-03T16:47:29.118Z,14.43
2023-04-03T16:53:31.433Z,13.38
2023-04-03T16:59:33.732Z,12.48
2023-04-03T17:05:36.920Z,12.38
2023-04-03T17:11:39.901Z,13.55
2023-04-03T17:17:42.699Z,13.07
2023-04-03T17:23:51.073Z,11.93
2023-04-03T17:29:53.349Z,12.85
2023-04-03T17:35:58.566Z,15.07
2023-04-03T17:42:01.869Z,15.32
2023-04-03T17:48:04.845Z,16.20
2023-04-03T17:54:07.640Z,17.65
2023-04-03T18:06:17.727Z,17.95
2023-04-03T18:12:20.564Z,18.40
2023-04-03T18:18:23.143Z,18.60
2023-04-03T18:24:26.717Z,18.23
2023-04-03T18:30:30.073Z,19.38
2023-04-03T18:36:32.450Z,17.38
2023-04-03T18:42:34.858Z,15.45
2023-04-03T18:48:41.503Z,13.20
2023-04-03T18:54:43.794Z,13.10
2023-04-03T19:00:46.657Z,9.32
2023-04-03T19:06:49.467Z,10.02
2023-04-03T19:18:54.501Z,9.10
2023-04-03T19:24:56.934Z,7.55
2023-04-03T19:31:00.671Z,7.80
2023-04-03T19:37:03.216Z,7.60
2023-04-03T19:43:05.654Z,6.78
2023-04-03T19:49:08.105Z,7.03
2023-04-03T19:55:10.829Z,6.13
2023-04-03T20:07:15.837Z,5.32
2023-04-03T20:13:18.487Z,4.50
2023-04-03T20:31:33.120Z,5.90
2023-04-03T20:37:37.150Z,5.32
2023-04-03T20:43:40.275Z,5.75
2023-04-03T20:49:45.864Z,5.68
2023-04-03T20:56:01.513Z,5.78
2023-04-03T21:02:04.049Z,5.43
2023-04-03T21:08:43.767Z,4.32
2023-04-03T21:15:23.568Z,5.07
2023-04-03T21:21:27.232Z,5.43
2023-04-03T21:27:29.663Z,4.55
2023-04-03T21:33:32.040Z,4.40
2023-04-03T21:39:34.386Z,4.00
2023-04-03T21:45:39.516Z,4.15
2023-04-03T21:51:42.855Z,3.92
2023-04-03T21:57:51.799Z,3.58
2023-04-03T22:03:59.318Z,3.30
2023-04-03T22:10:01.855Z,3.60
2023-04-03T22:16:04.526Z,3.65
2023-04-03T22:22:07.868Z,3.22
2023-04-03T22:28:09.994Z,2.60
2023-04-03T22:34:12.131Z,2.67
2023-04-03T22:40:14.554Z,2.75
2023-04-03T22:46:17.088Z,3.08
2023-04-03T22:58:25.984Z,3.10
2023-04-03T23:04:28.155Z,2.55
2023-04-03T23:10:30.680Z,3.00
2023-04-03T23:16:33.282Z,2.72
2023-04-03T23:22:35.586Z,3.40
2023-04-03T23:28:38.548Z,3.05
2023-04-03T23:34:41.096Z,2.90
2023-04-03T23:40:43.627Z,2.90
2023-04-03T23:52:48.067Z,3.03
2023-04-03T23:58:50.978Z,2.20
